createdAt,value
2018-05-01T00:00:03.504Z,9.20
2018-05-01T00:02:33.221Z,4.73
2018-05-01T00:05:03.822Z,9.13
2018-05-01T00:07:33.545Z,3.83
2018-05-01T00:10:03.364Z,2.70
2018-05-01T00:12:33.065Z,5.53
2018-05-01T00:15:03.017Z,7.43
2018-05-01T00:17:32.747Z,3.23
2018-05-01T00:20:02.688Z,12.20
2018-05-01T00:22:33.404Z,3.58
2018-05-01T00:25:03.396Z,5.00
2018-05-01T00:27:33.080Z,5.40
2018-05-01T00:30:02.996Z,10.73
2018-05-01T00:32:33.146Z,3.20
2018-05-01T00:35:03.985Z,3.47
2018-05-01T00:37:34.526Z,5.00
2018-05-01T00:40:04.254Z,6.72
2018-05-01T00:42:33.982Z,5.23
2018-05-01T00:45:04.738Z,3.10
2018-05-01T00:47:35.229Z,9.50
2018-05-01T00:50:05.268Z,3.90
2018-05-01T00:52:46.544Z,2.63
2018-05-01T00:55:16.376Z,3.60
2018-05-01T00:57:46.940Z,3.60
2018-05-01T01:00:16.616Z,3.28
2018-05-01T01:02:47.041Z,3.70
2018-05-01T01:05:17.575Z,4.50
2018-05-01T01:07:48.141Z,4.70
2018-05-01T01:10:17.944Z,8.27
2018-05-01T01:12:47.756Z,4.67
2018-05-01T01:15:17.595Z,5.20
2018-05-01T01:17:47.290Z,4.53
2018-05-01T01:20:17.022Z,4.87
2018-05-01T01:22:46.725Z,4.60
2018-05-01T01:25:16.448Z,5.30
2018-05-01T01:27:46.134Z,8.03
2018-05-01T01:30:16.317Z,9.60
2018-05-01T01:32:46.722Z,8.93
2018-05-01T01:35:16.320Z,6.00
2018-05-01T01:37:45.713Z,8.20
2018-05-01T01:40:14.428Z,6.83
2018-05-01T01:42:43.494Z,13.40
2018-05-01T01:45:13.216Z,17.03
2018-05-01T01:47:42.076Z,10.67
2018-05-01T01:50:10.805Z,11.57
2018-05-01T01:52:40.288Z,13.50
2018-05-01T01:55:08.991Z,11.90
2018-05-01T01:57:38.474Z,15.50
2018-05-01T02:00:07.309Z,14.27
2018-05-01T02:02:36.975Z,6.50
2018-05-01T02:05:07.375Z,6.97
2018-05-01T02:07:36.727Z,13.93
2018-05-01T02:10:06.192Z,5.53
2018-05-01T02:12:36.151Z,5.80
2018-05-01T02:15:05.739Z,4.50
2018-05-01T02:17:34.441Z,6.85
2018-05-01T02:20:04.041Z,5.50
2018-05-01T02:22:33.640Z,4.60
2018-05-01T02:25:02.488Z,4.57
2018-05-01T02:27:31.317Z,5.87
2018-05-01T02:30:00.137Z,3.70
2018-05-01T02:32:28.856Z,7.13
2018-05-01T02:34:57.577Z,4.50
2018-05-01T02:37:26.273Z,5.83
2018-05-01T02:39:56.769Z,5.35
2018-05-01T02:42:25.469Z,3.53
2018-05-01T02:44:54.555Z,7.55
2018-05-01T02:47:23.265Z,7.43
2018-05-01T02:49:52.896Z,5.00
2018-05-01T02:52:21.740Z,4.47
2018-05-01T02:54:50.454Z,6.78
2018-05-01T02:57:19.823Z,3.90
2018-05-01T02:59:49.083Z,6.10
2018-05-01T03:02:17.921Z,5.90
2018-05-01T03:04:46.735Z,7.85
2018-05-01T03:07:16.239Z,9.67
2018-05-01T03:09:45.777Z,7.47
2018-05-01T03:12:14.635Z,8.25
2018-05-01T03:14:44.027Z,8.25
2018-05-01T03:17:12.753Z,5.43
2018-05-01T03:19:41.594Z,12.30
2018-05-01T03:22:11.487Z,8.50
2018-05-01T03:24:41.109Z,8.30
2018-05-01T03:27:09.818Z,5.37
2018-05-01T03:29:39.298Z,17.07
2018-05-01T03:32:08.011Z,9.43
2018-05-01T03:34:38.163Z,6.97
2018-05-01T03:37:07.017Z,10.30
2018-05-01T03:39:36.652Z,8.17
2018-05-01T03:42:05.390Z,12.95
2018-05-01T03:44:34.223Z,8.43
2018-05-01T03:47:02.964Z,5.97
2018-05-01T03:49:33.244Z,6.10
2018-05-01T03:52:03.545Z,15.58
2018-05-01T03:54:34.640Z,12.20
2018-05-01T03:57:03.361Z,9.60
2018-05-01T03:59:33.547Z,15.90
2018-05-01T04:02:03.030Z,10.52
2018-05-01T04:04:31.997Z,7.50
2018-05-01T04:07:00.736Z,8.35
2018-05-01T04:09:29.575Z,7.77
2018-05-01T04:11:59.044Z,10.57
2018-05-01T04:14:27.729Z,6.50
2018-05-01T04:16:56.444Z,5.90
2018-05-01T04:19:26.028Z,7.28
2018-05-01T04:21:55.739Z,5.50
2018-05-01T04:24:24.597Z,10.97
2018-05-01T04:26:54.957Z,7.85
2018-05-01T04:29:24.378Z,9.10
2018-05-01T04:31:55.221Z,6.35
2018-05-01T04:34:25.446Z,5.43
2018-05-01T04:36:55.543Z,7.05
2018-05-01T04:39:24.790Z,11.45
2018-05-01T04:41:53.511Z,10.05
2018-05-01T04:44:22.382Z,7.10
2018-05-01T04:46:51.768Z,8.33
2018-05-01T04:49:20.679Z,6.40
2018-05-01T04:51:49.502Z,9.05
2018-05-01T04:54:18.428Z,7.00
2018-05-01T04:56:47.139Z,5.43
2018-05-01T04:59:16.046Z,5.83
2018-05-01T05:01:45.673Z,6.30
2018-05-01T05:04:16.108Z,10.00
2018-05-01T05:06:46.688Z,5.43
2018-05-01T05:09:16.234Z,5.23
2018-05-01T05:11:46.691Z,3.33
2018-05-01T05:14:16.466Z,4.70
2018-05-01T05:16:45.216Z,3.63
2018-05-01T05:19:13.967Z,8.37
2018-05-01T05:21:43.511Z,5.93
2018-05-01T05:24:12.372Z,6.17
2018-05-01T05:26:41.183Z,9.83
2018-05-01T05:29:10.284Z,9.27
2018-05-01T05:31:39.017Z,7.57
2018-05-01T05:34:08.479Z,9.17
2018-05-01T05:36:37.386Z,8.18
2018-05-01T05:39:06.259Z,12.50
2018-05-01T09:42:17.219Z,6.90
2018-05-01T09:44:48.212Z,7.73
2018-05-01T09:47:17.049Z,6.67
2018-05-01T09:49:52.096Z,9.07
2018-05-01T09:52:21.987Z,7.30
2018-05-01T09:54:52.616Z,7.33
2018-05-01T10:04:16.064Z,10.00
2018-05-01T10:06:45.854Z,7.40
2018-05-01T10:09:16.508Z,10.13
2018-05-01T10:11:46.235Z,15.93
2018-05-01T10:14:15.988Z,7.90
2018-05-01T10:16:45.766Z,7.43
2018-05-01T10:19:15.622Z,9.97
2018-05-01T10:21:46.154Z,9.47
2018-05-01T10:24:16.701Z,6.80
2018-05-01T10:26:47.089Z,7.53
2018-05-01T10:29:16.826Z,9.60
2018-05-01T10:31:48.295Z,9.27
2018-05-01T10:34:18.066Z,6.60
2018-05-01T10:36:48.073Z,8.67
2018-05-01T10:39:17.828Z,11.23
2018-05-01T10:41:48.143Z,12.50
2018-05-01T10:44:17.998Z,11.37
2018-05-01T10:46:49.982Z,6.83
2018-05-01T10:49:19.790Z,8.17
2018-05-01T10:51:49.574Z,9.93
2018-05-01T10:54:19.350Z,9.50
2018-05-01T10:56:49.870Z,7.00
2018-05-01T10:59:20.425Z,14.07
2018-05-01T11:01:50.183Z,8.50
2018-05-01T11:04:19.953Z,8.37
2018-05-01T11:06:49.718Z,8.53
2018-05-01T11:09:19.492Z,10.43
2018-05-01T11:11:49.295Z,9.30
2018-05-01T11:14:19.098Z,18.13
2018-05-01T11:16:48.902Z,11.03
2018-05-01T11:19:18.642Z,11.03
2018-05-01T11:21:48.455Z,14.80
2018-05-01T11:24:19.277Z,9.67
2018-05-01T11:26:49.301Z,10.83
2018-05-01T11:29:19.561Z,8.30
2018-05-01T11:31:49.315Z,16.20
2018-05-01T11:34:19.114Z,9.37
2018-05-01T11:36:48.857Z,11.10
2018-05-01T11:39:18.646Z,16.67
2018-05-01T11:41:48.547Z,11.00
2018-05-01T11:44:19.087Z,8.93
2018-05-01T11:46:48.855Z,12.80
2018-05-01T11:49:18.597Z,14.63
2018-05-01T11:51:48.609Z,15.20
2018-05-01T11:54:19.172Z,18.37
2018-05-01T11:56:48.986Z,25.40
2018-05-01T11:59:18.759Z,13.70
2018-05-01T12:01:49.430Z,11.30
2018-05-01T12:04:19.234Z,11.93
2018-05-01T12:06:49.630Z,16.90
2018-05-01T12:09:20.195Z,12.10
2018-05-01T12:11:50.007Z,9.43
2018-05-01T12:14:19.777Z,12.80
2018-05-01T12:16:50.292Z,13.90
2018-05-01T12:19:20.107Z,19.03
2018-05-01T12:21:49.878Z,13.43
2018-05-01T12:24:19.684Z,13.93
2018-05-01T12:26:49.447Z,8.73
2018-05-01T12:29:20.025Z,15.40
2018-05-01T12:31:49.795Z,13.97
2018-05-01T12:34:20.332Z,11.30
2018-05-01T12:36:50.325Z,14.10
2018-05-01T12:39:21.004Z,14.80
2018-05-01T12:41:50.769Z,10.30
2018-05-01T12:44:20.749Z,8.47
2018-05-01T12:46:50.505Z,16.20
2018-05-01T12:49:21.020Z,21.63
2018-05-01T12:51:50.983Z,12.23
2018-05-01T12:54:20.818Z,19.23
2018-05-01T12:56:50.673Z,29.63
2018-05-01T12:59:21.209Z,106.20
2018-05-01T13:01:51.766Z,18.73
2018-05-01T13:04:21.557Z,242.23
2018-05-01T13:06:52.998Z,307.93
2018-05-01T13:09:23.564Z,131.77
2018-05-01T13:11:53.342Z,54.27
2018-05-01T13:14:23.877Z,17.30
2018-05-01T13:16:55.227Z,44.42
2018-05-01T13:19:25.979Z,275.57
2018-05-01T13:21:55.862Z,204.65
2018-05-01T13:24:26.619Z,159.73
2018-05-01T13:26:57.568Z,35.53
2018-05-01T13:29:27.329Z,22.27
2018-05-01T13:31:57.195Z,16.00
2018-05-01T13:34:27.034Z,11.23
2018-05-01T13:36:56.897Z,51.87
2018-05-01T13:39:27.513Z,16.47
2018-05-01T13:41:58.132Z,23.57
2018-05-01T13:44:27.870Z,13.40
2018-05-01T13:46:58.365Z,16.93
2018-05-01T13:51:34.041Z,12.97
2018-05-01T13:55:37.968Z,14.13
2018-05-01T13:58:14.526Z,16.60
2018-05-01T14:00:48.228Z,9.93
2018-05-01T14:03:21.940Z,14.40
2018-05-01T14:05:55.877Z,12.13
2018-05-01T14:08:29.782Z,12.73
2018-05-01T14:11:03.704Z,10.10
2018-05-01T14:13:39.048Z,18.47
2018-05-01T14:16:12.773Z,9.03
2018-05-01T14:18:46.265Z,9.27
2018-05-01T14:21:20.036Z,8.90
2018-05-01T14:23:55.280Z,11.83
2018-05-01T14:26:28.802Z,21.57
2018-05-01T14:29:02.615Z,14.43
2018-05-01T14:31:37.224Z,16.10
2018-05-01T14:34:10.740Z,19.43
2018-05-01T14:36:44.521Z,16.43
2018-05-01T14:39:18.170Z,14.90
2018-05-01T14:41:53.841Z,18.43
2018-05-01T14:44:27.420Z,9.13
2018-05-01T14:47:00.790Z,15.17
2018-05-01T14:49:34.376Z,16.50
2018-05-01T14:52:08.066Z,26.13
2018-05-01T14:54:41.800Z,15.63
2018-05-01T14:57:15.542Z,15.83
2018-05-01T14:59:49.385Z,13.43
2018-05-01T15:02:23.044Z,15.37
2018-05-01T15:04:57.489Z,20.10
2018-05-01T15:07:31.248Z,19.20
2018-05-01T15:10:04.864Z,14.50
2018-05-01T15:12:38.581Z,14.83
2018-05-01T15:15:12.048Z,15.27
2018-05-01T15:17:45.632Z,15.77
2018-05-01T15:20:19.139Z,24.63
2018-05-01T15:22:52.809Z,20.60
2018-05-01T15:25:26.584Z,20.20
2018-05-01T15:28:00.322Z,29.90
2018-05-01T15:49:55.148Z,26.33
2018-05-01T15:52:24.889Z,28.20
2018-05-01T15:54:54.787Z,26.07
2018-05-01T15:57:24.692Z,25.77
2018-05-01T15:59:54.548Z,28.90
2018-05-01T16:02:25.955Z,34.10
2018-05-01T16:04:55.932Z,27.07
2018-05-01T16:07:27.005Z,24.33
2018-05-01T16:09:56.888Z,29.47
2018-05-01T16:12:26.602Z,28.20
2018-05-01T16:14:56.289Z,30.80
2018-05-01T16:17:26.832Z,31.33
2018-05-01T16:19:57.617Z,49.17
2018-05-01T16:22:27.506Z,44.37
2018-05-01T16:24:57.396Z,31.40
2018-05-01T16:27:27.262Z,37.53
2018-05-01T16:29:57.170Z,26.67
2018-05-01T16:32:27.041Z,26.43
2018-05-01T16:34:56.869Z,30.10
2018-05-01T16:37:26.559Z,32.33
2018-05-01T16:39:56.363Z,32.03
2018-05-01T16:42:26.070Z,33.83
2018-05-01T16:44:55.904Z,25.40
2018-05-01T16:47:25.713Z,26.00
2018-05-01T16:49:55.556Z,33.90
2018-05-01T16:52:25.271Z,36.80
2018-05-01T16:54:55.413Z,26.63
2018-05-01T16:57:25.241Z,41.30
2018-05-01T16:59:55.089Z,28.63
2018-05-01T17:02:26.631Z,32.17
2018-05-01T17:04:56.476Z,38.60
2018-05-01T17:07:26.329Z,32.13
2018-05-01T17:09:56.929Z,26.47
2018-05-01T17:12:26.639Z,35.60
2018-05-01T17:14:56.362Z,32.93
2018-05-01T17:17:26.148Z,24.90
2018-05-01T17:19:55.982Z,36.10
2018-05-01T17:22:25.696Z,25.53
2018-05-01T17:24:56.606Z,26.47
2018-05-01T17:27:27.448Z,30.37
2018-05-01T17:29:57.151Z,28.53
2018-05-01T17:32:26.848Z,30.10
2018-05-01T17:34:56.735Z,25.13
2018-05-01T17:37:26.501Z,39.30
2018-05-01T17:39:56.236Z,28.20
2018-05-01T17:42:26.818Z,43.50
2018-05-01T17:44:56.684Z,25.07
2018-05-01T17:47:27.529Z,38.43
2018-05-01T17:49:58.055Z,27.60
2018-05-01T17:52:27.889Z,28.90
2018-05-01T17:54:57.880Z,39.93
2018-05-01T17:57:28.431Z,29.80
2018-05-01T17:59:58.398Z,37.30
2018-05-01T18:02:28.206Z,34.30
2018-05-01T18:04:58.066Z,25.20
2018-05-01T18:07:27.791Z,27.20
2018-05-01T18:09:57.683Z,31.40
2018-05-01T18:12:27.520Z,25.70
2018-05-01T18:14:57.401Z,25.33
2018-05-01T18:17:27.112Z,26.27
2018-05-01T18:19:57.615Z,27.87
2018-05-01T18:22:27.339Z,26.80
2018-05-01T18:24:58.017Z,56.93
2018-05-01T18:27:28.751Z,25.63
2018-05-01T18:29:58.636Z,33.07
2018-05-01T18:32:28.436Z,25.80
2018-05-01T18:34:58.976Z,32.63
2018-05-01T18:37:28.789Z,26.50
2018-05-01T18:39:58.654Z,27.97
2018-05-01T18:42:28.480Z,36.17
2018-05-01T18:44:58.202Z,32.90
2018-05-01T18:47:28.802Z,39.13
2018-05-01T18:49:58.642Z,25.43
2018-05-01T18:52:29.254Z,27.70
2018-05-01T18:55:00.117Z,25.10
2018-05-01T18:57:30.892Z,31.60
2018-05-01T19:00:00.799Z,33.83
2018-05-01T19:02:30.518Z,32.00
2018-05-01T19:05:00.234Z,41.17
2018-05-01T19:07:30.056Z,31.00
2018-05-01T19:09:59.901Z,26.43
2018-05-01T19:12:31.101Z,29.73
2018-05-01T19:15:00.980Z,39.63
2018-05-01T19:17:31.793Z,32.63
2018-05-01T19:20:01.836Z,28.47
2018-05-01T19:22:31.752Z,33.17
2018-05-01T19:25:01.636Z,29.00
2018-05-01T19:27:31.430Z,31.70
2018-05-01T19:30:01.305Z,38.40
2018-05-01T19:32:30.951Z,32.43
2018-05-01T19:35:00.671Z,26.23
2018-05-01T19:37:30.404Z,28.57
2018-05-01T19:40:00.898Z,49.80
2018-05-01T19:42:30.740Z,31.70
2018-05-01T19:45:01.224Z,27.83
2018-05-01T19:47:30.942Z,25.93
2018-05-01T19:50:00.639Z,28.53
2018-05-01T19:52:30.522Z,31.60
2018-05-01T19:55:00.277Z,31.47
2018-05-01T19:57:31.006Z,28.20
2018-05-01T20:00:00.745Z,26.50
2018-05-01T20:02:30.631Z,25.07
2018-05-01T20:05:00.507Z,22.63
2018-05-01T20:07:30.423Z,28.10
2018-05-01T20:10:00.288Z,37.03
2018-05-01T20:12:30.884Z,26.87
2018-05-01T20:15:00.658Z,32.50
2018-05-01T20:17:31.156Z,22.60
2018-05-01T20:20:00.909Z,25.20
2018-05-01T20:22:30.714Z,23.30
2018-05-01T20:25:01.356Z,24.37
2018-05-01T20:27:31.197Z,33.03
2018-05-01T20:30:00.950Z,36.03
2018-05-01T20:32:30.873Z,24.37
2018-05-01T20:35:01.373Z,28.43
2018-05-01T20:37:31.225Z,26.43
2018-05-01T20:40:01.743Z,22.60
2018-05-01T20:42:31.658Z,28.10
2018-05-01T20:45:02.155Z,24.80
2018-05-01T20:47:31.863Z,32.50
2018-05-01T20:50:01.601Z,47.27
2018-05-01T20:52:32.265Z,22.70
2018-05-01T20:55:02.106Z,34.20
2018-05-01T20:57:31.786Z,27.80
2018-05-01T21:00:01.660Z,38.67
2018-05-01T21:02:31.491Z,29.03
2018-05-01T21:05:01.380Z,25.27
2018-05-01T21:07:31.070Z,29.43
2018-05-01T21:10:00.876Z,35.57
2018-05-01T21:12:30.692Z,33.80
2018-05-01T21:15:00.496Z,26.20
2018-05-01T21:17:30.333Z,30.23
2018-05-01T21:20:00.105Z,30.03
2018-05-01T21:22:29.955Z,31.73
2018-05-01T21:24:59.774Z,38.40
2018-05-01T21:27:30.062Z,26.17
2018-05-01T21:29:59.915Z,46.67
2018-05-01T21:32:29.633Z,29.57
2018-05-01T21:35:00.286Z,26.43
2018-05-01T21:37:30.957Z,38.47
2018-05-01T21:40:00.661Z,30.60
2018-05-01T21:42:30.384Z,29.53
2018-05-01T21:45:00.245Z,32.10
2018-05-01T21:47:29.925Z,31.57
2018-05-01T21:49:59.766Z,29.40
2018-05-01T21:52:30.426Z,28.37
2018-05-01T21:55:00.181Z,53.07
2018-05-01T21:57:30.052Z,32.30
2018-05-01T21:59:59.865Z,31.50
2018-05-01T22:02:29.587Z,29.10
2018-05-01T22:04:59.295Z,30.87
2018-05-01T22:07:29.028Z,32.57
2018-05-01T22:09:58.807Z,29.20
2018-05-01T22:12:28.676Z,32.37
2018-05-01T22:14:59.113Z,29.23
2018-05-01T22:17:29.849Z,33.63
2018-05-01T22:20:00.449Z,27.67
2018-05-01T22:22:30.168Z,32.83
2018-05-01T22:24:59.986Z,27.10
2018-05-01T22:27:31.679Z,26.40
2018-05-01T22:30:01.507Z,37.07
2018-05-01T22:32:31.313Z,28.97
2018-05-01T22:35:01.197Z,28.03
2018-05-01T22:37:30.957Z,34.73
2018-05-01T22:40:00.836Z,24.10
2018-05-01T22:42:30.675Z,24.80
2018-05-01T22:45:00.392Z,24.80
2018-05-01T22:47:30.135Z,24.47
2018-05-01T22:49:59.968Z,25.73
2018-05-01T22:52:29.644Z,33.20
2018-05-01T22:54:59.478Z,40.13
2018-05-01T22:57:29.985Z,34.73
2018-05-01T22:59:59.836Z,32.23
2018-05-01T23:02:29.593Z,39.73
2018-05-01T23:04:59.436Z,24.17
2018-05-01T23:07:29.926Z,31.70
2018-05-01T23:09:59.696Z,29.40
2018-05-01T23:12:30.287Z,31.33
2018-05-01T23:15:00.010Z,32.00
2018-05-01T23:17:29.888Z,27.47
2018-05-01T23:19:59.696Z,40.83
2018-05-01T23:22:29.674Z,38.07
2018-05-01T23:25:00.303Z,32.77
2018-05-01T23:27:30.895Z,27.93
2018-05-01T23:30:00.741Z,34.87
2018-05-01T23:32:31.351Z,30.43
2018-05-01T23:35:01.063Z,35.83
2018-05-01T23:37:30.808Z,29.67
2018-05-01T23:40:00.564Z,32.93
2018-05-01T23:42:30.377Z,27.93
2018-05-01T23:45:00.076Z,29.00
2018-05-01T23:47:29.948Z,26.80
2018-05-01T23:49:59.682Z,33.37
2018-05-01T23:52:29.529Z,29.00
2018-05-01T23:54:59.377Z,39.90
2018-05-01T23:57:29.877Z,32.13
2018-05-01T23:59:59.572Z,32.33
